createdAt,value
2023-03-07T00:00:18.975Z,99716.72
2023-03-07T00:02:50.462Z,99713.94
2023-03-07T00:05:18.540Z,99713.66
2023-03-07T00:07:46.392Z,99712.81
2023-03-07T00:10:14.335Z,99712.53
2023-03-07T00:12:42.109Z,99714.06
2023-03-07T00:15:10.451Z,99718.41
2023-03-07T00:17:38.991Z,99709.44
2023-03-07T00:20:07.751Z,99707.78
2023-03-07T00:22:35.837Z,99709.44
2023-03-07T00:25:04.458Z,99706.94
2023-03-07T00:27:32.315Z,99711.13
2023-03-07T00:30:00.398Z,99703.72
2023-03-07T00:32:28.436Z,99706.94
2023-03-07T00:34:57.621Z,99705.41
2023-03-07T00:37:25.378Z,99713.09
2023-03-07T00:39:53.120Z,99717.28
2023-03-07T00:42:20.897Z,99710.81
2023-03-07T00:44:48.618Z,99709.97
2023-03-07T00:47:16.410Z,99700.19
2023-03-07T00:49:44.181Z,99692.56
2023-03-07T00:52:12.022Z,99694.94
2023-03-07T00:54:39.900Z,99687.34
2023-03-07T00:57:07.704Z,99685.97
2023-03-07T00:59:35.796Z,99692.94
2023-03-07T01:02:03.589Z,99684.69
2023-03-07T01:04:31.621Z,99682.59
2023-03-07T01:06:59.394Z,99688.06
2023-03-07T01:09:27.160Z,99685.81
2023-03-07T01:12:07.460Z,99684.53
2023-03-07T01:14:35.131Z,99684.84
2023-03-07T01:17:04.448Z,99679.53
2023-03-07T01:19:32.230Z,99674.63
2023-03-07T01:21:59.890Z,99676.72
2023-03-07T01:24:27.746Z,99675.19
2023-03-07T01:26:55.842Z,99673.66
2023-03-07T01:29:24.852Z,99673.09
2023-03-07T01:31:53.247Z,99674.22
2023-03-07T01:34:21.341Z,99677.56
2023-03-07T01:36:51.144Z,99671.41
2023-03-07T01:39:19.012Z,99670.59
2023-03-07T01:42:08.053Z,99673.53
2023-03-07T01:44:54.771Z,99673.94
2023-03-07T01:47:23.354Z,99667.66
2023-03-07T01:49:54.661Z,99669.47
2023-03-07T01:52:25.617Z,99671.09
2023-03-07T01:55:03.563Z,99677.72
2023-03-07T01:57:37.646Z,99677.78
2023-03-07T02:00:09.099Z,99675.81
2023-03-07T02:02:44.466Z,99668.28
2023-03-07T02:05:19.966Z,99675.69
2023-03-07T02:07:48.906Z,99680.69
2023-03-07T02:10:20.272Z,99662.81
2023-03-07T02:12:48.520Z,99666.53
2023-03-07T02:15:16.943Z,99667.81
2023-03-07T02:17:45.106Z,99667.88
2023-03-07T02:20:31.939Z,99663.16
2023-03-07T02:22:59.718Z,99652.53
2023-03-07T02:25:27.404Z,99657.41
2023-03-07T02:27:57.488Z,99652.25
2023-03-07T02:30:27.026Z,99656.22
2023-03-07T02:32:55.734Z,99656.22
2023-03-07T02:35:24.856Z,99652.00
2023-03-07T02:37:57.650Z,99644.53
2023-03-07T02:40:27.721Z,99651.22
2023-03-07T02:42:57.508Z,99642.16
2023-03-07T02:45:25.302Z,99650.38
2023-03-07T02:47:53.013Z,99647.84
2023-03-07T02:50:20.822Z,99646.16
2023-03-07T02:52:52.481Z,99648.66
2023-03-07T02:55:20.249Z,99641.97
2023-03-07T02:57:54.200Z,99649.84
2023-03-07T03:00:22.383Z,99642.31
2023-03-07T03:02:50.131Z,99647.06
2023-03-07T03:05:20.380Z,99643.00
2023-03-07T03:07:48.791Z,99643.81
2023-03-07T03:10:17.381Z,99646.72
2023-03-07T03:12:45.234Z,99643.53
2023-03-07T03:15:13.277Z,99644.63
2023-03-07T03:17:41.295Z,99647.56
2023-03-07T03:20:12.145Z,99645.47
2023-03-07T03:22:40.789Z,99658.97
2023-03-07T03:25:10.942Z,99664.44
2023-03-07T03:27:40.528Z,99658.06
2023-03-07T03:30:09.574Z,99667.13
2023-03-07T03:32:38.276Z,99659.56
2023-03-07T03:35:07.347Z,99661.09
2023-03-07T03:37:35.268Z,99662.69
2023-03-07T03:40:14.647Z,99668.00
2023-03-07T03:42:44.297Z,99663.50
2023-03-07T03:45:15.166Z,99671.75
2023-03-07T03:47:43.188Z,99673.75
2023-03-07T03:50:11.469Z,99667.59
2023-03-07T03:52:40.095Z,99660.00
2023-03-07T03:55:08.022Z,99665.81
2023-03-07T03:57:35.738Z,99670.47
2023-03-07T04:00:05.728Z,99674.66
2023-03-07T04:02:40.324Z,99674.94
2023-03-07T04:05:11.969Z,99667.50
2023-03-07T04:07:39.646Z,99671.59
2023-03-07T04:10:07.812Z,99675.03
2023-03-07T04:12:35.967Z,99680.31
2023-03-07T04:15:06.262Z,99680.84
2023-03-07T04:17:34.223Z,99677.72
2023-03-07T04:20:01.993Z,99671.28
2023-03-07T04:22:30.300Z,99665.47
2023-03-07T04:24:58.043Z,99668.91
2023-03-07T04:27:26.976Z,99678.25
2023-03-07T04:29:56.172Z,99675.41
2023-03-07T04:32:23.993Z,99671.56
2023-03-07T04:34:51.901Z,99673.84
2023-03-07T04:37:19.498Z,99671.59
2023-03-07T04:39:47.081Z,99666.41
2023-03-07T04:42:15.251Z,99662.84
2023-03-07T04:44:42.992Z,99678.56
2023-03-07T04:47:10.701Z,99669.69
2023-03-07T04:49:39.424Z,99668.00
2023-03-07T04:52:08.214Z,99668.69
2023-03-07T04:54:36.711Z,99663.22
2023-03-07T04:57:04.756Z,99657.41
2023-03-07T04:59:32.713Z,99664.13
2023-03-07T05:02:01.008Z,99659.81
2023-03-07T05:04:31.396Z,99664.69
2023-03-07T05:06:59.330Z,99663.56
2023-03-07T05:09:27.264Z,99662.56
2023-03-07T05:11:55.142Z,99665.47
2023-03-07T05:14:23.018Z,99662.97
2023-03-07T05:16:50.707Z,99673.03
2023-03-07T05:19:19.947Z,99670.47
2023-03-07T05:21:49.415Z,99665.81
2023-03-07T05:24:18.231Z,99661.16
2023-03-07T05:26:45.968Z,99663.06
2023-03-07T05:29:13.592Z,99659.66
2023-03-07T05:31:41.217Z,99653.41
2023-03-07T05:34:11.056Z,99658.31
2023-03-07T05:36:40.138Z,99651.28
2023-03-07T05:39:09.357Z,99663.56
2023-03-07T05:41:37.053Z,99662.84
2023-03-07T05:44:05.105Z,99664.28
2023-03-07T05:46:33.036Z,99667.09
2023-03-07T05:49:01.103Z,99668.06
2023-03-07T05:51:28.847Z,99665.81
2023-03-07T05:53:56.577Z,99674.41
2023-03-07T05:56:24.477Z,99680.97
2023-03-07T05:58:52.270Z,99679.53
2023-03-07T06:01:19.997Z,99672.34
2023-03-07T06:03:48.672Z,99672.06
2023-03-07T06:06:16.370Z,99674.13
2023-03-07T06:08:44.376Z,99685.59
2023-03-07T06:11:12.294Z,99680.63
2023-03-07T06:13:40.427Z,99679.06
2023-03-07T06:16:08.171Z,99682.53
2023-03-07T06:18:38.907Z,99690.91
2023-03-07T06:21:07.874Z,99693.44
2023-03-07T06:23:40.673Z,99692.66
2023-03-07T06:26:13.222Z,99693.28
2023-03-07T06:28:43.178Z,99695.66
2023-03-07T06:31:14.636Z,99697.34
2023-03-07T06:33:42.905Z,99694.47
2023-03-07T06:36:12.820Z,99695.03
2023-03-07T06:38:42.459Z,99696.84
2023-03-07T06:41:10.214Z,99703.44
2023-03-07T06:43:38.554Z,99704.16
2023-03-07T06:46:06.473Z,99696.66
2023-03-07T06:48:38.713Z,99709.22
2023-03-07T06:51:09.554Z,99702.63
2023-03-07T06:53:39.628Z,99709.13
2023-03-07T06:56:07.338Z,99710.91
2023-03-07T06:58:36.198Z,99710.78
2023-03-07T07:01:04.759Z,99718.50
2023-03-07T07:03:35.267Z,99719.28
2023-03-07T07:06:03.999Z,99718.56
2023-03-07T07:08:32.070Z,99723.25
2023-03-07T07:10:59.685Z,99726.00
2023-03-07T07:13:28.417Z,99717.25
2023-03-07T07:15:56.189Z,99714.34
2023-03-07T07:18:25.707Z,99718.09
2023-03-07T07:20:55.859Z,99714.31
2023-03-07T07:23:24.220Z,99717.34
2023-03-07T07:25:51.917Z,99722.50
2023-03-07T07:28:19.667Z,99729.13
2023-03-07T07:30:47.460Z,99724.00
2023-03-07T07:33:17.231Z,99726.22
2023-03-07T07:35:48.497Z,99728.16
2023-03-07T07:38:16.597Z,99720.47
2023-03-07T07:40:45.501Z,99724.13
2023-03-07T07:43:15.556Z,99723.50
2023-03-07T07:45:48.387Z,99718.53
2023-03-07T07:48:19.661Z,99721.84
2023-03-07T07:50:47.935Z,99724.13
2023-03-07T07:53:18.002Z,99731.44
2023-03-07T07:55:49.089Z,99731.78
2023-03-07T07:58:17.859Z,99735.06
2023-03-07T08:00:46.657Z,99732.22
2023-03-07T08:03:14.334Z,99734.75
2023-03-07T08:05:48.414Z,99731.00
2023-03-07T08:08:17.109Z,99725.16
2023-03-07T08:10:48.078Z,99728.06
2023-03-07T08:13:16.967Z,99728.03
2023-03-07T08:15:44.620Z,99722.56
2023-03-07T08:18:12.586Z,99727.91
2023-03-07T08:20:41.557Z,99733.75
2023-03-07T08:23:09.296Z,99735.88
2023-03-07T08:25:36.916Z,99734.25
2023-03-07T08:28:05.695Z,99743.56
2023-03-07T08:30:34.356Z,99745.72
2023-03-07T08:33:01.946Z,99740.78
2023-03-07T08:35:31.967Z,99747.34
2023-03-07T08:38:00.837Z,99747.22
2023-03-07T08:40:29.519Z,99754.59
2023-03-07T08:42:58.849Z,99737.66
2023-03-07T08:45:27.084Z,99748.69
2023-03-07T08:47:55.303Z,99746.06
2023-03-07T08:50:24.048Z,99748.47
2023-03-07T08:52:52.064Z,99747.34
2023-03-07T08:55:20.537Z,99749.63
2023-03-07T08:57:48.225Z,99749.09
2023-03-07T09:00:16.043Z,99749.53
2023-03-07T09:02:43.780Z,99744.03
2023-03-07T09:05:11.397Z,99745.38
2023-03-07T09:07:39.035Z,99744.78
2023-03-07T09:10:06.874Z,99750.00
2023-03-07T09:12:36.505Z,99748.53
2023-03-07T09:15:04.275Z,99746.28
2023-03-07T09:17:31.823Z,99741.16
2023-03-07T09:19:59.793Z,99739.78
2023-03-07T09:22:27.762Z,99734.19
2023-03-07T09:24:55.366Z,99746.09
2023-03-07T09:27:23.101Z,99738.28
2023-03-07T09:29:50.727Z,99742.59
2023-03-07T09:32:18.359Z,99741.28
2023-03-07T09:34:45.956Z,99740.38
2023-03-07T09:37:13.548Z,99752.59
2023-03-07T09:39:41.108Z,99746.94
2023-03-07T09:42:19.559Z,99744.78
2023-03-07T09:45:16.559Z,99745.56
2023-03-07T09:47:57.590Z,99727.41
2023-03-07T09:50:34.708Z,99728.22
2023-03-07T09:53:04.061Z,99731.66
2023-03-07T09:55:32.332Z,99724.75
2023-03-07T09:58:01.165Z,99715.75
2023-03-07T10:00:31.787Z,99729.19
2023-03-07T10:03:18.636Z,99720.38
2023-03-07T10:05:50.425Z,99718.13
2023-03-07T10:08:29.796Z,99708.06
2023-03-07T10:11:06.927Z,99705.00
2023-03-07T10:13:37.486Z,99701.41
2023-03-07T10:16:10.712Z,99702.78
2023-03-07T10:18:46.138Z,99702.19
2023-03-07T10:21:22.912Z,99706.28
2023-03-07T10:24:11.781Z,99699.63
2023-03-07T10:26:43.298Z,99692.03
2023-03-07T10:29:14.394Z,99698.66
2023-03-07T10:31:45.042Z,99698.22
2023-03-07T10:34:32.948Z,99690.69
2023-03-07T10:37:09.076Z,99691.06
2023-03-07T10:39:43.838Z,99681.72
2023-03-07T10:42:12.505Z,99682.41
2023-03-07T10:44:40.671Z,99688.44
2023-03-07T10:47:28.271Z,99685.81
2023-03-07T10:50:08.412Z,99684.09
2023-03-07T10:52:40.064Z,99680.72
2023-03-07T10:55:26.078Z,99683.31
2023-03-07T10:57:53.818Z,99681.44
2023-03-07T11:00:21.676Z,99674.38
2023-03-07T11:02:49.324Z,99681.13
2023-03-07T11:05:31.391Z,99674.47
2023-03-07T11:07:59.816Z,99665.63
2023-03-07T11:10:33.549Z,99668.31
2023-03-07T11:13:07.555Z,99662.69
2023-03-07T11:15:35.254Z,99653.34
2023-03-07T11:18:02.848Z,99648.09
2023-03-07T11:20:46.778Z,99645.69
2023-03-07T11:23:26.363Z,99632.22
2023-03-07T11:25:55.557Z,99625.56
2023-03-07T11:28:26.024Z,99628.66
2023-03-07T11:30:57.363Z,99617.81
2023-03-07T11:33:30.815Z,99620.78
2023-03-07T11:36:03.995Z,99618.63
2023-03-07T11:38:39.100Z,99617.16
2023-03-07T11:41:25.578Z,99611.22
2023-03-07T11:44:10.805Z,99606.88
2023-03-07T11:47:10.524Z,99607.91
2023-03-07T11:49:41.160Z,99601.25
2023-03-07T11:52:27.466Z,99601.06
2023-03-07T11:55:27.634Z,99604.06
2023-03-07T11:57:58.743Z,99602.81
2023-03-07T12:00:29.399Z,99600.53
2023-03-07T12:02:59.898Z,99599.94
2023-03-07T12:05:43.130Z,99597.00
2023-03-07T12:08:29.732Z,99580.69
2023-03-07T12:11:16.622Z,99580.88
2023-03-07T12:13:44.318Z,99571.38
2023-03-07T12:16:16.762Z,99574.88
2023-03-07T12:18:58.188Z,99577.03
2023-03-07T12:21:43.140Z,99565.16
2023-03-07T12:24:20.493Z,99568.44
2023-03-07T12:26:59.331Z,99564.78
2023-03-07T12:29:26.990Z,99560.81
2023-03-07T12:31:59.340Z,99562.13
2023-03-07T12:34:45.725Z,99552.31
2023-03-07T12:37:25.531Z,99558.88
2023-03-07T12:39:55.474Z,99560.06
2023-03-07T12:42:26.197Z,99564.13
2023-03-07T12:45:06.804Z,99555.59
2023-03-07T12:47:43.352Z,99558.50
2023-03-07T12:50:29.636Z,99556.75
2023-03-07T12:53:04.349Z,99552.09
2023-03-07T12:55:48.905Z,99564.66
2023-03-07T12:58:16.726Z,99562.56
2023-03-07T13:00:48.413Z,99556.03
2023-03-07T13:03:22.972Z,99545.84
2023-03-07T13:05:51.122Z,99548.88
2023-03-07T13:08:23.904Z,99548.09
2023-03-07T13:10:52.007Z,99537.56
2023-03-07T13:13:38.553Z,99541.72
2023-03-07T13:16:06.700Z,99542.81
2023-03-07T13:18:34.472Z,99530.91
2023-03-07T13:21:08.092Z,99532.75
2023-03-07T13:23:36.356Z,99535.50
2023-03-07T13:26:10.822Z,99531.53
2023-03-07T13:28:40.786Z,99535.53
2023-03-07T13:31:17.928Z,99538.66
2023-03-07T13:33:45.578Z,99536.78
2023-03-07T13:36:33.179Z,99538.03
2023-03-07T13:39:01.058Z,99533.47
2023-03-07T13:41:51.046Z,99538.22
2023-03-07T13:44:27.639Z,99537.63
2023-03-07T13:46:59.088Z,99523.50
2023-03-07T13:49:40.561Z,99525.09
2023-03-07T13:52:20.691Z,99516.19
2023-03-07T13:54:49.928Z,99516.09
2023-03-07T13:57:19.137Z,99512.97
2023-03-07T13:59:50.300Z,99498.63
2023-03-07T14:02:18.537Z,99506.59
2023-03-07T14:04:54.566Z,99500.50
2023-03-07T14:07:22.259Z,99498.56
2023-03-07T14:09:52.048Z,99495.38
2023-03-07T14:12:26.697Z,99500.13
2023-03-07T14:15:03.424Z,99494.47
2023-03-07T14:18:00.573Z,99511.44
2023-03-07T14:20:46.560Z,99519.94
2023-03-07T14:23:33.125Z,99500.22
2023-03-07T14:26:16.358Z,99496.88
2023-03-07T14:28:48.377Z,99490.53
2023-03-07T14:31:30.555Z,99489.69
2023-03-07T14:33:58.965Z,99483.09
2023-03-07T14:36:29.546Z,99480.16
2023-03-07T14:38:58.575Z,99491.28
2023-03-07T14:41:36.798Z,99477.94
2023-03-07T14:44:22.899Z,99478.81
2023-03-07T14:47:01.684Z,99484.50
2023-03-07T14:49:41.370Z,99483.91
2023-03-07T14:52:21.327Z,99478.94
2023-03-07T14:54:57.143Z,99481.22
2023-03-07T14:57:30.050Z,99474.53
2023-03-07T15:00:15.656Z,99477.59
2023-03-07T15:03:08.534Z,99464.25
2023-03-07T15:05:50.144Z,99462.88
2023-03-07T15:08:31.441Z,99458.28
2023-03-07T15:11:08.081Z,99461.09
2023-03-07T15:13:45.480Z,99465.16
2023-03-07T15:16:18.530Z,99461.22
2023-03-07T15:18:52.322Z,99455.47
2023-03-07T15:21:21.553Z,99461.38
2023-03-07T15:23:54.082Z,99459.84
2023-03-07T15:26:23.416Z,99440.59
2023-03-07T15:28:58.116Z,99447.94
2023-03-07T15:31:25.902Z,99452.22
2023-03-07T15:33:53.642Z,99439.75
2023-03-07T15:36:25.763Z,99435.91
2023-03-07T15:38:54.153Z,99447.56
2023-03-07T15:41:25.879Z,99451.50
2023-03-07T15:44:11.792Z,99447.13
2023-03-07T15:46:42.639Z,99442.78
2023-03-07T15:49:22.157Z,99447.63
2023-03-07T15:51:54.608Z,99444.47
2023-03-07T15:54:28.256Z,99450.75
2023-03-07T15:56:59.738Z,99446.78
2023-03-07T15:59:38.698Z,99451.72
2023-03-07T16:02:25.209Z,99446.88
2023-03-07T16:04:54.007Z,99448.53
2023-03-07T16:07:21.696Z,99452.69
2023-03-07T16:09:49.368Z,99449.16
2023-03-07T16:12:18.854Z,99458.88
2023-03-07T16:14:50.466Z,99462.34
2023-03-07T16:17:21.388Z,99474.00
2023-03-07T16:19:49.224Z,99476.59
2023-03-07T16:22:17.986Z,99463.75
2023-03-07T16:24:46.048Z,99454.88
2023-03-07T16:27:18.575Z,99452.06
2023-03-07T16:29:46.900Z,99469.16
2023-03-07T16:32:16.889Z,99468.31
2023-03-07T16:34:44.780Z,99472.53
2023-03-07T16:37:13.536Z,99481.78
2023-03-07T16:39:41.501Z,99475.59
2023-03-07T16:42:22.928Z,99486.97
2023-03-07T16:44:51.569Z,99488.34
2023-03-07T16:47:19.308Z,99487.66
2023-03-07T16:49:47.039Z,99488.13
2023-03-07T16:52:14.725Z,99479.84
2023-03-07T16:54:42.742Z,99488.72
2023-03-07T16:57:13.129Z,99484.25
2023-03-07T16:59:44.332Z,99493.25
2023-03-07T17:02:15.101Z,99488.78
2023-03-07T17:04:44.342Z,99488.13
2023-03-07T17:07:16.497Z,99487.44
2023-03-07T17:09:44.263Z,99493.16
2023-03-07T17:12:12.243Z,99486.66
2023-03-07T17:14:40.583Z,99467.66
2023-03-07T17:17:11.570Z,99475.72
2023-03-07T17:19:39.227Z,99475.91
2023-03-07T17:22:07.048Z,99477.19
2023-03-07T17:24:34.748Z,99482.69
2023-03-07T17:27:05.565Z,99481.88
2023-03-07T17:29:38.843Z,99488.25
2023-03-07T17:32:06.713Z,99488.25
2023-03-07T17:34:35.507Z,99485.97
2023-03-07T17:37:03.960Z,99483.25
2023-03-07T17:39:32.234Z,99493.28
2023-03-07T17:42:00.752Z,99496.50
2023-03-07T17:44:28.676Z,99504.00
2023-03-07T17:46:56.635Z,99515.22
2023-03-07T17:49:26.333Z,99511.56
2023-03-07T17:51:53.965Z,99512.56
2023-03-07T17:54:21.720Z,99508.53
2023-03-07T17:56:49.554Z,99511.72
2023-03-07T17:59:17.453Z,99526.59
2023-03-07T18:01:45.132Z,99520.44
2023-03-07T18:04:12.858Z,99530.28
2023-03-07T18:06:41.084Z,99537.09
2023-03-07T18:09:09.420Z,99533.28
2023-03-07T18:11:37.205Z,99529.94
2023-03-07T18:14:04.903Z,99535.78
2023-03-07T18:16:32.675Z,99533.25
2023-03-07T18:19:03.492Z,99533.13
2023-03-07T18:21:32.516Z,99527.59
2023-03-07T18:24:00.158Z,99527.09
2023-03-07T18:26:27.886Z,99527.78
2023-03-07T18:28:56.652Z,99527.09
2023-03-07T18:31:25.386Z,99528.94
2023-03-07T18:33:53.326Z,99526.09
2023-03-07T18:36:22.278Z,99537.63
2023-03-07T18:38:50.545Z,99526.25
2023-03-07T18:41:20.144Z,99539.13
2023-03-07T18:43:47.946Z,99540.63
2023-03-07T18:46:19.682Z,99535.28
2023-03-07T18:48:47.717Z,99537.75
2023-03-07T18:51:16.567Z,99528.59
2023-03-07T18:53:44.330Z,99541.41
2023-03-07T18:56:13.560Z,99539.25
2023-03-07T18:58:41.645Z,99544.22
2023-03-07T19:01:15.280Z,99544.56
2023-03-07T19:03:43.456Z,99553.41
2023-03-07T19:06:11.452Z,99559.25
2023-03-07T19:08:39.221Z,99560.56
2023-03-07T19:11:08.575Z,99560.88
2023-03-07T19:13:36.821Z,99561.34
2023-03-07T19:16:15.398Z,99557.84
2023-03-07T19:18:43.692Z,99558.44
2023-03-07T19:21:13.052Z,99554.00
2023-03-07T19:23:40.813Z,99554.88
2023-03-07T19:26:10.331Z,99561.03
2023-03-07T19:28:38.371Z,99564.72
2023-03-07T19:31:10.477Z,99561.09
2023-03-07T19:33:38.493Z,99562.06
2023-03-07T19:36:11.032Z,99554.53
2023-03-07T19:38:38.916Z,99553.00
2023-03-07T19:41:09.992Z,99547.34
2023-03-07T19:43:37.715Z,99540.34
2023-03-07T19:46:06.571Z,99537.22
2023-03-07T19:48:34.676Z,99537.59
2023-03-07T19:51:02.667Z,99543.94
2023-03-07T19:53:30.754Z,99543.06
2023-03-07T19:56:08.099Z,99539.22
2023-03-07T19:58:37.269Z,99538.34
2023-03-07T20:01:09.513Z,99543.94
2023-03-07T20:03:37.332Z,99550.44
2023-03-07T20:06:05.818Z,99551.78
2023-03-07T20:08:33.892Z,99554.59
2023-03-07T20:11:10.367Z,99560.59
2023-03-07T20:13:38.537Z,99563.69
2023-03-07T20:16:09.969Z,99569.66
2023-03-07T20:18:38.545Z,99566.75
2023-03-07T20:21:10.852Z,99568.91
2023-03-07T20:23:38.702Z,99568.09
2023-03-07T20:26:14.540Z,99580.50
2023-03-07T20:28:42.415Z,99564.78
2023-03-07T20:31:11.422Z,99561.06
2023-03-07T20:33:40.217Z,99571.19
2023-03-07T20:36:09.252Z,99570.88
2023-03-07T20:38:38.011Z,99574.47
2023-03-07T20:41:07.393Z,99576.41
2023-03-07T20:43:35.124Z,99572.00
2023-03-07T20:46:07.813Z,99566.31
2023-03-07T20:48:35.994Z,99574.91
2023-03-07T20:51:05.410Z,99564.81
2023-03-07T20:53:33.596Z,99570.72
2023-03-07T20:56:02.147Z,99566.25
2023-03-07T20:58:30.270Z,99557.25
2023-03-07T21:00:58.989Z,99571.75
2023-03-07T21:03:26.974Z,99576.41
2023-03-07T21:05:58.550Z,99584.53
2023-03-07T21:08:26.998Z,99578.44
2023-03-07T21:11:18.263Z,99564.69
2023-03-07T21:13:47.091Z,99560.75
2023-03-07T21:16:19.073Z,99558.44
2023-03-07T21:18:46.834Z,99560.38
2023-03-07T21:21:15.891Z,99571.25
2023-03-07T21:23:43.619Z,99572.81
2023-03-07T21:26:13.234Z,99567.03
2023-03-07T21:28:41.303Z,99568.41
2023-03-07T21:31:15.131Z,99567.50
2023-03-07T21:33:44.128Z,99568.88
2023-03-07T21:36:14.385Z,99562.72
2023-03-07T21:38:42.644Z,99569.31
2023-03-07T21:41:10.372Z,99567.44
2023-03-07T21:43:38.073Z,99572.75
2023-03-07T21:46:06.998Z,99571.88
2023-03-07T21:48:34.663Z,99576.06
2023-03-07T21:51:03.149Z,99569.41
2023-03-07T21:53:30.891Z,99571.91
2023-03-07T21:56:00.580Z,99574.72
2023-03-07T21:58:29.555Z,99572.78
2023-03-07T22:00:57.593Z,99571.69
2023-03-07T22:03:26.285Z,99576.59
2023-03-07T22:05:56.296Z,99573.00
2023-03-07T22:08:25.009Z,99574.59
2023-03-07T22:10:57.190Z,99568.97
2023-03-07T22:13:24.870Z,99569.50
2023-03-07T22:15:56.452Z,99576.81
2023-03-07T22:18:24.470Z,99571.09
2023-03-07T22:20:52.134Z,99572.72
2023-03-07T22:23:19.784Z,99572.63
2023-03-07T22:25:47.388Z,99567.28
2023-03-07T22:28:19.558Z,99570.66
2023-03-07T22:30:47.536Z,99561.16
2023-03-07T22:33:15.605Z,99563.34
2023-03-07T22:35:43.284Z,99562.38
2023-03-07T22:38:10.918Z,99557.19
2023-03-07T22:40:39.633Z,99559.78
2023-03-07T22:43:07.314Z,99560.91
2023-03-07T22:45:34.970Z,99560.56
2023-03-07T22:48:02.889Z,99568.41
2023-03-07T22:50:30.973Z,99580.72
2023-03-07T22:52:58.745Z,99574.13
2023-03-07T22:55:26.492Z,99574.28
2023-03-07T22:57:54.175Z,99574.22
2023-03-07T23:00:21.951Z,99568.59
2023-03-07T23:02:49.582Z,99571.78
2023-03-07T23:05:17.333Z,99565.94
2023-03-07T23:07:47.190Z,99563.03
2023-03-07T23:10:16.359Z,99562.81
2023-03-07T23:12:44.410Z,99569.81
2023-03-07T23:15:12.187Z,99568.97
2023-03-07T23:17:40.003Z,99569.75
2023-03-07T23:20:08.491Z,99563.19
2023-03-07T23:22:36.192Z,99565.19
2023-03-07T23:25:05.332Z,99561.53
2023-03-07T23:27:33.380Z,99562.78
2023-03-07T23:30:01.073Z,99557.88
2023-03-07T23:32:30.712Z,99561.28
2023-03-07T23:34:58.422Z,99567.44
2023-03-07T23:37:26.054Z,99573.38
2023-03-07T23:39:53.671Z,99567.19
2023-03-07T23:42:21.440Z,99567.69
2023-03-07T23:44:49.230Z,99574.09
2023-03-07T23:47:17.097Z,99577.50
2023-03-07T23:49:44.779Z,99574.31
2023-03-07T23:52:12.349Z,99569.72
2023-03-07T23:54:42.281Z,99575.09
2023-03-07T23:57:09.912Z,99575.66
2023-03-07T23:59:37.569Z,99570.25
